Time;durP1;ratioP1;P1;durP2;ratioP2;P2;SDS_P1;SDS_P2;PMS_P1;PMS_P2;Temp;Humidity;BMP_temperature;BMP_pressure;BME280_temperature;BME280_humidity;BME280_pressure;Samples;Min_cycle;Max_cycle;Signal;HPM_P1;HPM_P2
2022/09/27 00:01:13;;;;;;;1.40;0.80;;;11.10;98.20;;;;;;5119419;28;20915;-47
2022/09/27 00:03:39;;;;;;;3.53;0.90;;;11.10;97.90;;;;;;5119005;28;20444;-46
2022/09/27 00:06:26;;;;;;;1.30;0.93;;;11.10;98.30;;;;;;5118756;28;20890;-45
2022/09/27 00:08:52;;;;;;;1.30;0.73;;;11.10;98.00;;;;;;5118810;28;20880;-46
2022/09/27 00:11:39;;;;;;;1.40;1.10;;;11.10;98.10;;;;;;5118608;28;20536;-50
2022/09/27 00:14:06;;;;;;;2.03;0.90;;;11.10;98.20;;;;;;5118640;28;20242;-45
2022/09/27 00:16:34;;;;;;;1.87;0.70;;;11.10;98.30;;;;;;5118422;28;20760;-46
2022/09/27 00:19:03;;;;;;;1.33;0.93;;;11.10;98.30;;;;;;5118771;28;20868;-45
2022/09/27 00:21:29;;;;;;;1.23;0.90;;;11.10;98.70;;;;;;5118385;28;20509;-46
2022/09/27 00:23:55;;;;;;;1.70;0.70;;;11.00;98.50;;;;;;5118669;28;20430;-45
2022/09/27 00:26:21;;;;;;;1.90;0.83;;;11.00;98.50;;;;;;5118742;28;20418;-47
2022/09/27 00:28:47;;;;;;;2.00;0.80;;;11.00;98.60;;;;;;5117094;28;20416;-46
2022/09/27 00:31:24;;;;;;;2.90;1.10;;;11.00;98.70;;;;;;5118779;28;20208;-47
2022/09/27 00:33:52;;;;;;;1.83;1.20;;;11.00;98.70;;;;;;5118597;28;20282;-44
2022/09/27 00:36:18;;;;;;;1.13;0.77;;;11.00;98.80;;;;;;5118587;28;20424;-47
2022/09/27 00:38:44;;;;;;;1.20;0.80;;;11.00;98.80;;;;;;5118291;28;20429;-49
2022/09/27 00:41:23;;;;;;;2.00;0.80;;;11.00;98.90;;;;;;5118507;28;20414;-47
2022/09/27 00:43:51;;;;;;;1.40;0.83;;;11.00;98.90;;;;;;5118374;28;20178;-45
2022/09/27 00:46:39;;;;;;;1.37;0.90;;;11.00;99.00;;;;;;5118388;28;20479;-46
2022/09/27 00:49:38;;;;;;;1.77;0.80;;;11.00;99.00;;;;;;5100657;28;20832;-46
2022/09/27 00:52:09;;;;;;;1.50;0.60;;;11.00;99.00;;;;;;5103848;28;20602;-46
2022/09/27 00:54:38;;;;;;;2.00;1.07;;;11.00;99.10;;;;;;5117748;28;20568;-46
2022/09/27 00:57:04;;;;;;;1.33;0.90;;;11.00;99.20;;;;;;5099040;28;20481;-46
2022/09/27 00:59:38;;;;;;;1.13;0.77;;;11.00;99.30;;;;;;5098489;28;20496;-47
2022/09/27 01:02:05;;;;;;;1.40;0.90;;;11.00;99.30;;;;;;5098683;28;20850;-45
2022/09/27 01:04:31;;;;;;;1.43;0.70;;;11.00;99.40;;;;;;5098085;28;20529;-45
2022/09/27 01:06:56;;;;;;;1.07;0.70;;;11.00;99.50;;;;;;5116064;28;20528;-48
2022/09/27 01:09:23;;;;;;;1.70;1.00;;;11.00;99.50;;;;;;5116161;28;20813;-45
2022/09/27 01:12:07;;;;;;;1.90;0.83;;;11.00;99.50;;;;;;5116910;28;20200;-44
2022/09/27 01:15:11;;;;;;;1.33;0.70;;;10.90;99.60;;;;;;5118284;28;20818;-47
2022/09/27 01:17:42;;;;;;;1.20;0.90;;;10.90;99.60;;;;;;5117779;28;20404;-48
2022/09/27 01:20:14;;;;;;;1.40;0.63;;;10.90;99.80;;;;;;5117326;28;20420;-46
2022/09/27 01:22:54;;;;;;;1.27;0.90;;;10.90;99.80;;;;;;5117430;28;20406;-47
2022/09/27 01:25:32;;;;;;;1.57;1.00;;;10.90;99.80;;;;;;5099213;28;20418;-48
2022/09/27 01:28:06;;;;;;;1.67;0.80;;;10.90;99.90;;;;;;5116033;28;20534;-48
2022/09/27 01:30:42;;;;;;;1.00;0.70;;;10.90;99.90;;;;;;5116457;28;20541;-45
2022/09/27 01:33:16;;;;;;;1.27;0.87;;;11.00;99.90;;;;;;5116314;28;20406;-47
2022/09/27 01:35:57;;;;;;;1.37;0.70;;;11.00;99.90;;;;;;5115565;28;20429;-44
2022/09/27 01:38:51;;;;;;;1.80;0.60;;;11.00;99.90;;;;;;5117070;28;20822;-46
2022/09/27 01:41:37;;;;;;;1.00;0.53;;;11.00;99.90;;;;;;5117292;28;20693;-46
2022/09/27 01:44:08;;;;;;;1.50;0.90;;;11.00;99.90;;;;;;5115059;28;20429;-45
2022/09/27 01:46:50;;;;;;;1.10;0.63;;;11.00;99.90;;;;;;5096707;28;20698;-48
2022/09/27 01:49:25;;;;;;;1.73;0.73;;;11.00;99.90;;;;;;5097259;28;20584;-46
2022/09/27 01:51:58;;;;;;;1.20;0.80;;;11.00;99.90;;;;;;5096103;28;20474;-47
2022/09/27 01:54:31;;;;;;;1.70;0.83;;;11.00;99.90;;;;;;5093965;28;20466;-47
2022/09/27 01:56:58;;;;;;;1.67;0.70;;;11.00;99.90;;;;;;5094080;28;20431;-46
2022/09/27 01:59:29;;;;;;;1.90;0.70;;;11.00;99.90;;;;;;5095711;28;20410;-45
2022/09/27 02:01:58;;;;;;;1.30;0.80;;;11.00;99.90;;;;;;5096100;28;20977;-46
2022/09/27 02:04:27;;;;;;;1.23;0.60;;;11.00;99.90;;;;;;5095517;28;20423;-45
2022/09/27 02:07:02;;;;;;;2.00;0.87;;;11.00;99.90;;;;;;5079007;28;20447;-45
2022/09/27 02:09:40;;;;;;;0.90;0.50;;;11.00;99.90;;;;;;5096876;28;20407;-48
2022/09/27 02:12:10;;;;;;;1.00;0.60;;;11.00;99.90;;;;;;5096663;28;20534;-46
2022/09/27 02:15:00;;;;;;;1.33;0.70;;;11.00;99.90;;;;;;5095786;28;20497;-47
2022/09/27 02:17:26;;;;;;;1.20;0.60;;;11.10;99.90;;;;;;5095380;28;20423;-44
2022/09/27 02:19:53;;;;;;;1.50;0.70;;;11.00;99.90;;;;;;5096597;28;20569;-46
2022/09/27 02:22:27;;;;;;;1.30;0.90;;;11.10;99.90;;;;;;5096398;28;20204;-47
2022/09/27 02:25:24;;;;;;;1.10;0.67;;;11.10;99.90;;;;;;5095014;28;20419;-45
2022/09/27 02:28:27;;;;;;;1.23;0.77;;;11.10;99.90;;;;;;5095259;28;20430;-45
2022/09/27 02:30:53;;;;;;;1.77;0.57;;;11.10;99.90;;;;;;5095659;28;20466;-46
2022/09/27 02:33:40;;;;;;;2.73;0.47;;;11.10;99.90;;;;;;5093478;28;20645;-44
2022/09/27 02:36:07;;;;;;;1.30;0.63;;;11.10;99.90;;;;;;5093077;28;20166;-47
2022/09/27 02:38:33;;;;;;;1.20;0.60;;;11.10;99.90;;;;;;5093570;28;20439;-46
2022/09/27 02:40:59;;;;;;;1.20;0.50;;;11.10;99.90;;;;;;5094095;28;20419;-46
2022/09/27 02:43:28;;;;;;;1.13;0.50;;;11.00;99.90;;;;;;5095470;28;20177;-44
2022/09/27 02:46:06;;;;;;;1.40;0.53;;;11.00;99.90;;;;;;5094954;28;20446;-44
2022/09/27 02:49:01;;;;;;;0.90;0.50;;;11.00;99.90;;;;;;5098229;28;20855;-46
2022/09/27 02:51:46;;;;;;;0.97;0.50;;;11.00;99.90;;;;;;5099651;28;20466;-44
2022/09/27 02:54:33;;;;;;;1.07;0.50;;;11.00;99.90;;;;;;5098757;28;20472;-45
2022/09/27 02:56:59;;;;;;;2.27;0.73;;;10.90;99.90;;;;;;5099758;28;20504;-46
2022/09/27 02:59:35;;;;;;;0.77;0.40;;;10.90;99.70;;;;;;5099591;28;20845;-44
2022/09/27 03:02:11;;;;;;;1.10;0.50;;;10.80;99.40;;;;;;5098681;28;20279;-46
2022/09/27 03:04:43;;;;;;;0.80;0.40;;;10.80;99.10;;;;;;5099981;28;20897;-45
2022/09/27 03:07:09;;;;;;;1.20;0.40;;;10.80;98.90;;;;;;5099230;28;20407;-45
2022/09/27 03:09:49;;;;;;;1.20;0.40;;;10.70;98.70;;;;;;5098144;28;20438;-45
2022/09/27 03:12:24;;;;;;;1.37;0.40;;;10.70;98.60;;;;;;5099593;28;20209;-45
2022/09/27 03:14:59;;;;;;;1.60;0.60;;;10.70;98.60;;;;;;5100104;28;20410;-46
2022/09/27 03:17:25;;;;;;;1.13;0.50;;;10.60;98.60;;;;;;5100060;28;20398;-44
2022/09/27 03:19:51;;;;;;;1.40;0.57;;;10.60;98.60;;;;;;5098711;28;20698;-45
2022/09/27 03:22:17;;;;;;;2.40;0.60;;;10.60;98.70;;;;;;5099655;28;20650;-44
2022/09/27 03:24:43;;;;;;;1.47;0.50;;;10.60;98.80;;;;;;5099112;28;20507;-44
2022/09/27 03:27:09;;;;;;;1.00;0.63;;;10.60;98.80;;;;;;5099814;28;20239;-47
2022/09/27 03:29:35;;;;;;;1.60;0.90;;;10.60;98.90;;;;;;5098788;28;20191;-45
2022/09/27 03:32:01;;;;;;;2.70;0.70;;;10.60;98.90;;;;;;5098499;28;20474;-46
2022/09/27 03:34:26;;;;;;;2.93;0.93;;;10.60;98.90;;;;;;5099015;28;20461;-46
2022/09/27 03:36:52;;;;;;;1.67;0.90;;;10.60;98.90;;;;;;5099243;28;20692;-45
2022/09/27 03:39:18;;;;;;;2.07;0.70;;;10.60;98.90;;;;;;5099246;28;20188;-46
2022/09/27 03:41:43;;;;;;;1.80;1.00;;;10.60;98.90;;;;;;5097455;28;20179;-45
2022/09/27 03:44:09;;;;;;;1.90;1.63;;;10.60;98.90;;;;;;5098276;28;20231;-47
2022/09/27 03:46:35;;;;;;;3.70;2.00;;;10.60;99.00;;;;;;5097632;28;20185;-46
2022/09/27 03:49:00;;;;;;;2.50;1.13;;;10.60;98.90;;;;;;5098160;28;20192;-44
2022/09/27 03:51:26;;;;;;;2.77;1.57;;;10.50;98.90;;;;;;5098521;28;20584;-46
2022/09/27 03:53:52;;;;;;;2.60;1.60;;;10.50;98.90;;;;;;5098826;28;20635;-44
2022/09/27 03:56:18;;;;;;;3.90;1.30;;;10.50;98.90;;;;;;5118442;28;20415;-47
2022/09/27 03:58:44;;;;;;;2.43;1.40;;;10.50;98.90;;;;;;5118323;28;20461;-44
2022/09/27 04:01:09;;;;;;;3.57;1.77;;;10.50;98.90;;;;;;5117772;28;20413;-47
2022/09/27 04:03:35;;;;;;;3.00;1.87;;;10.60;99.00;;;;;;5099636;28;20263;-48
2022/09/27 04:06:01;;;;;;;2.80;1.50;;;10.50;99.00;;;;;;5124176;27;20176;-44
2022/09/27 04:08:28;;;;;;;3.10;1.50;;;10.50;99.00;;;;;;5124451;27;20588;-49
2022/09/27 04:10:55;;;;;;;3.70;1.83;;;10.50;99.10;;;;;;5122370;27;20630;-48
2022/09/27 04:13:21;;;;;;;3.50;1.50;;;10.50;99.10;;;;;;5116259;27;20445;-45
2022/09/27 04:15:47;;;;;;;1.93;1.57;;;10.50;99.20;;;;;;5116872;27;20413;-45
2022/09/27 04:18:13;;;;;;;3.03;1.83;;;10.50;99.20;;;;;;5114602;28;20906;-46
2022/09/27 04:20:39;;;;;;;2.13;1.40;;;10.50;99.30;;;;;;5115097;28;20547;-49
2022/09/27 04:23:05;;;;;;;3.40;1.43;;;10.50;99.30;;;;;;5115734;28;20508;-44
2022/09/27 04:25:31;;;;;;;3.90;1.97;;;10.60;99.40;;;;;;5114296;28;20558;-48
2022/09/27 04:28:00;;;;;;;3.33;1.50;;;10.60;99.40;;;;;;5115802;28;20208;-44
2022/09/27 04:30:25;;;;;;;4.10;2.03;;;10.50;99.40;;;;;;5082314;28;20430;-45
2022/09/27 04:32:51;;;;;;;4.03;1.60;;;10.50;99.40;;;;;;5117550;28;20420;-44
2022/09/27 04:38:02;;;;;;;2.87;1.77;;;10.50;99.50;;;;;;5116181;28;20206;-49
2022/09/27 04:40:27;;;;;;;3.30;1.80;;;10.50;99.50;;;;;;5116161;28;20433;-46
2022/09/27 04:42:53;;;;;;;3.00;1.50;;;10.50;99.60;;;;;;5126951;27;20437;-46
2022/09/27 04:45:19;;;;;;;4.53;2.00;;;10.50;99.60;;;;;;5136189;27;20184;-46
2022/09/27 04:47:47;;;;;;;2.23;1.20;;;10.50;99.60;;;;;;5135583;27;20171;-47
2022/09/27 04:50:13;;;;;;;6.87;1.90;;;10.50;99.70;;;;;;5134784;27;20224;-45
2022/09/27 04:52:39;;;;;;;1.73;1.60;;;10.50;99.60;;;;;;5132935;27;20410;-48
2022/09/27 04:55:09;;;;;;;3.67;1.73;;;10.50;99.60;;;;;;5115303;27;20469;-46
2022/09/27 04:57:35;;;;;;;2.80;1.30;;;10.50;99.60;;;;;;5132272;27;20167;-46
2022/09/27 05:00:00;;;;;;;3.37;1.07;;;10.50;99.60;;;;;;5133164;27;20846;-44
2022/09/27 05:02:27;;;;;;;4.13;2.23;;;10.50;99.50;;;;;;5130251;27;20560;-47
2022/09/27 05:04:56;;;;;;;2.47;0.90;;;10.40;99.20;;;;;;5130710;27;21010;-47
2022/09/27 05:07:22;;;;;;;2.77;1.27;;;10.40;99.10;;;;;;5132632;27;20419;-43
2022/09/27 05:09:48;;;;;;;3.63;1.33;;;10.40;99.00;;;;;;5132559;27;20962;-46
2022/09/27 05:12:13;;;;;;;2.10;1.27;;;10.40;98.90;;;;;;5111939;27;20226;-42
2022/09/27 05:14:39;;;;;;;2.10;1.17;;;10.30;98.90;;;;;;5131329;27;20176;-45
2022/09/27 05:17:06;;;;;;;2.30;1.20;;;10.30;98.90;;;;;;5131517;27;20168;-42
2022/09/27 05:19:32;;;;;;;5.03;1.13;;;10.30;98.90;;;;;;5128614;27;20190;-43
2022/09/27 05:21:58;;;;;;;2.90;1.53;;;10.20;98.90;;;;;;5129094;27;20421;-44
2022/09/27 05:24:24;;;;;;;1.53;1.23;;;10.20;99.00;;;;;;5128601;27;20406;-44
2022/09/27 05:26:49;;;;;;;1.50;1.10;;;10.20;99.00;;;;;;5127955;27;20457;-45
2022/09/27 05:29:16;;;;;;;2.03;1.27;;;10.10;99.00;;;;;;5125410;27;20164;-46
2022/09/27 05:31:42;;;;;;;2.60;1.13;;;10.10;99.10;;;;;;5126511;27;20298;-44
2022/09/27 05:34:10;;;;;;;2.07;1.30;;;10.10;99.00;;;;;;5128334;27;20417;-43
2022/09/27 05:36:36;;;;;;;2.63;1.27;;;10.10;99.10;;;;;;5130043;27;20846;-45
2022/09/27 05:39:03;;;;;;;3.23;1.70;;;10.10;99.10;;;;;;5128168;27;20492;-43
2022/09/27 05:41:31;;;;;;;2.67;1.37;;;10.10;99.20;;;;;;5130253;27;20430;-45
2022/09/27 05:43:57;;;;;;;2.60;1.43;;;10.10;99.30;;;;;;5112346;28;20412;-44
2022/09/27 05:46:23;;;;;;;2.00;1.17;;;10.10;99.50;;;;;;5130329;27;20432;-45
2022/09/27 05:48:48;;;;;;;3.10;1.77;;;10.10;99.60;;;;;;5130083;27;20883;-45
2022/09/27 05:51:14;;;;;;;3.67;1.60;;;10.10;99.70;;;;;;5129442;27;20218;-45
2022/09/27 05:53:39;;;;;;;2.77;1.67;;;10.10;99.80;;;;;;5129354;28;20168;-43
2022/09/27 05:56:05;;;;;;;1.60;1.20;;;10.10;99.80;;;;;;5110592;28;20223;-46
2022/09/27 05:58:31;;;;;;;1.77;1.10;;;10.10;99.70;;;;;;5129728;28;20175;-45
2022/09/27 06:00:57;;;;;;;2.37;0.97;;;10.10;99.60;;;;;;5130394;28;20720;-43
2022/09/27 06:03:23;;;;;;;2.63;1.40;;;10.10;99.50;;;;;;5131260;28;20176;-44
2022/09/27 06:05:50;;;;;;;2.80;1.30;;;10.10;99.30;;;;;;5131311;28;20273;-44
2022/09/27 06:08:15;;;;;;;2.00;1.40;;;10.10;99.30;;;;;;5114063;28;20187;-45
2022/09/27 06:10:41;;;;;;;1.80;1.37;;;10.20;99.30;;;;;;5132641;28;20492;-42
2022/09/27 06:13:11;;;;;;;1.60;1.10;;;10.20;99.20;;;;;;5132154;28;20221;-43
2022/09/27 06:15:39;;;;;;;2.50;1.10;;;10.20;99.00;;;;;;5113670;28;20172;-45
2022/09/27 06:18:10;;;;;;;1.40;0.73;;;10.30;98.90;;;;;;5132207;28;20409;-42
2022/09/27 06:20:36;;;;;;;1.20;0.70;;;10.30;98.70;;;;;;5132287;28;20437;-44
2022/09/27 06:23:07;;;;;;;2.27;0.60;;;10.40;98.60;;;;;;5136807;27;20415;-43
2022/09/27 06:25:33;;;;;;;1.43;0.80;;;10.40;98.20;;;;;;5136227;27;20715;-45
2022/09/27 06:27:59;;;;;;;2.80;1.07;;;10.50;98.00;;;;;;5136589;27;20405;-46
2022/09/27 06:30:25;;;;;;;1.60;0.70;;;10.50;97.70;;;;;;5137657;27;20424;-45
2022/09/27 06:33:11;;;;;;;2.40;0.83;;;10.60;97.40;;;;;;5136322;27;20353;-47
2022/09/27 06:35:38;;;;;;;1.50;0.83;;;10.60;97.20;;;;;;5124051;27;20463;-42
2022/09/27 06:38:07;;;;;;;1.40;1.00;;;10.50;97.10;;;;;;5118352;28;20423;-44
2022/09/27 06:40:33;;;;;;;1.33;0.97;;;10.50;97.20;;;;;;5118952;28;20409;-46
2022/09/27 06:43:09;;;;;;;1.83;1.10;;;10.50;97.30;;;;;;5118204;27;20850;-44
2022/09/27 06:45:35;;;;;;;1.20;0.80;;;10.60;97.40;;;;;;5096335;28;20710;-43
2022/09/27 06:48:02;;;;;;;1.40;0.80;;;10.70;97.30;;;;;;5096005;28;20667;-42
2022/09/27 06:50:29;;;;;;;1.00;0.80;;;10.80;97.30;;;;;;5096406;28;20466;-43
2022/09/27 06:52:55;;;;;;;1.17;0.80;;;10.90;97.10;;;;;;5096704;28;20420;-47
2022/09/27 06:55:21;;;;;;;1.87;0.77;;;11.00;97.20;;;;;;5093303;28;20473;-43
2022/09/27 07:00:31;;;;;;;1.23;0.47;;;11.60;96.60;;;;;;5093721;28;20433;-45
2022/09/27 07:03:00;;;;;;;1.13;0.50;;;12.00;95.50;;;;;;5093191;28;20428;-45
2022/09/27 07:05:28;;;;;;;0.97;0.53;;;12.30;94.40;;;;;;5095239;28;20198;-47
2022/09/27 07:07:57;;;;;;;1.00;0.40;;;12.40;93.90;;;;;;5092905;28;20439;-43
2022/09/27 07:10:24;;;;;;;1.20;0.40;;;12.70;93.50;;;;;;5093957;28;20739;-48
2022/09/27 07:12:51;;;;;;;0.90;0.50;;;12.90;92.90;;;;;;5095362;28;20477;-44
2022/09/27 07:15:20;;;;;;;1.87;0.40;;;13.20;92.30;;;;;;5097597;28;20418;-45
2022/09/27 07:17:46;;;;;;;1.20;0.50;;;13.60;91.40;;;;;;5097499;28;20427;-44
2022/09/27 07:20:12;;;;;;;1.60;0.70;;;13.70;91.50;;;;;;5095232;28;20422;-45
2022/09/27 07:22:44;;;;;;;1.10;0.60;;;13.90;97.80;;;;;;5096738;28;20434;-44
2022/09/27 07:25:10;;;;;;;3.97;0.70;;;14.40;99.90;;;;;;5096842;28;20355;-45
2022/09/27 07:27:35;;;;;;;1.20;0.47;;;14.60;99.80;;;;;;5093428;28;20904;-44
2022/09/27 07:30:01;;;;;;;1.10;0.53;;;14.80;98.20;;;;;;5114155;28;20434;-43
2022/09/27 07:32:27;;;;;;;0.80;0.40;;;14.80;95.60;;;;;;5113369;28;20572;-45
2022/09/27 07:34:53;;;;;;;1.33;0.50;;;14.50;92.80;;;;;;5113073;28;20184;-44
2022/09/27 07:37:18;;;;;;;1.40;0.80;;;14.20;91.50;;;;;;5116422;28;20437;-46
2022/09/27 07:39:44;;;;;;;1.67;0.60;;;13.90;90.90;;;;;;5113983;28;20595;-44
2022/09/27 07:42:09;;;;;;;0.90;0.50;;;13.60;90.60;;;;;;5115744;28;20196;-44
2022/09/27 07:44:35;;;;;;;1.33;0.53;;;13.40;90.50;;;;;;5115765;28;20191;-45
2022/09/27 07:47:01;;;;;;;1.17;0.40;;;13.20;90.50;;;;;;5113859;27;20179;-43
2022/09/27 07:49:26;;;;;;;1.67;0.40;;;13.10;90.50;;;;;;5113702;28;20208;-44
2022/09/27 07:51:52;;;;;;;1.10;0.60;;;13.10;90.70;;;;;;5115590;28;20276;-47
2022/09/27 07:54:18;;;;;;;1.10;0.40;;;13.10;90.80;;;;;;5120719;27;20306;-45
2022/09/27 07:56:47;;;;;;;2.30;0.60;;;13.10;90.90;;;;;;5137667;27;20427;-44
2022/09/27 07:59:12;;;;;;;1.00;0.60;;;13.30;90.90;;;;;;5136234;27;20611;-45
2022/09/27 08:01:38;;;;;;;1.83;0.80;;;13.60;90.90;;;;;;5137019;27;20425;-46
2022/09/27 08:04:04;;;;;;;4.47;0.97;;;14.10;90.10;;;;;;5137482;27;20184;-43
2022/09/27 08:06:30;;;;;;;1.77;0.80;;;14.40;88.70;;;;;;5137124;27;20176;-43
2022/09/27 08:08:57;;;;;;;1.40;0.50;;;14.80;86.70;;;;;;5137454;27;20909;-43
2022/09/27 08:11:23;;;;;;;2.70;0.50;;;15.00;85.70;;;;;;5136299;27;20551;-44
2022/09/27 08:13:51;;;;;;;1.50;0.80;;;16.00;85.20;;;;;;5134957;27;20520;-43
2022/09/27 08:16:17;;;;;;;1.80;0.50;;;17.40;80.90;;;;;;5133880;27;20222;-45
2022/09/27 08:18:44;;;;;;;1.20;0.47;;;18.20;75.70;;;;;;5136611;27;20421;-47
2022/09/27 08:21:10;;;;;;;1.20;0.60;;;19.00;72.30;;;;;;5135416;27;20419;-45
2022/09/27 08:23:35;;;;;;;1.10;0.60;;;19.30;67.60;;;;;;5133715;27;20440;-43
2022/09/27 08:26:01;;;;;;;1.40;0.60;;;19.20;65.80;;;;;;5135042;27;20199;-44
2022/09/27 08:28:28;;;;;;;1.30;0.50;;;18.70;64.60;;;;;;5135021;27;20172;-44
2022/09/27 08:30:58;;;;;;;1.27;0.50;;;18.10;65.50;;;;;;5116309;27;20745;-46
2022/09/27 08:33:24;;;;;;;0.97;0.40;;;17.40;66.30;;;;;;5134817;27;20836;-48
2022/09/27 08:35:50;;;;;;;1.00;0.50;;;16.70;68.40;;;;;;5134342;27;20409;-44
2022/09/27 08:38:16;;;;;;;1.53;0.70;;;16.20;70.10;;;;;;5137121;27;20800;-43
2022/09/27 08:40:54;;;;;;;1.73;0.60;;;15.80;72.20;;;;;;5137284;27;20433;-43
2022/09/27 08:43:27;;;;;;;0.97;0.40;;;15.40;74.10;;;;;;5118102;27;20195;-47
2022/09/27 08:46:02;;;;;;;1.40;0.33;;;15.10;76.20;;;;;;5134176;27;20441;-44
2022/09/27 08:48:29;;;;;;;1.27;0.47;;;14.70;77.30;;;;;;5114128;28;20499;-47
2022/09/27 08:50:55;;;;;;;0.90;0.40;;;14.60;78.20;;;;;;5113284;28;20746;-47
2022/09/27 08:53:26;;;;;;;1.33;0.40;;;15.00;79.30;;;;;;5113754;28;20501;-46
2022/09/27 08:55:56;;;;;;;1.30;0.60;;;16.10;76.20;;;;;;5097356;28;20557;-46
2022/09/27 08:58:49;;;;;;;0.90;0.50;;;16.90;73.00;;;;;;5098478;28;20413;-44
2022/09/27 09:01:15;;;;;;;1.97;0.40;;;17.50;69.70;;;;;;5087217;28;20450;-45
2022/09/27 09:03:49;;;;;;;1.13;0.60;;;17.80;67.00;;;;;;5095954;28;20419;-43
2022/09/27 09:06:36;;;;;;;0.80;0.30;;;18.10;65.40;;;;;;5113761;28;20454;-43
2022/09/27 09:09:06;;;;;;;1.03;0.30;;;18.50;63.30;;;;;;5114512;28;20416;-44
2022/09/27 09:14:47;;;;;;;0.97;0.40;;;19.90;60.60;;;;;;5113923;28;20426;-42
2022/09/27 09:17:24;;;;;;;0.90;0.40;;;21.30;58.10;;;;;;5095219;28;20440;-42
2022/09/27 09:20:11;;;;;;;1.50;0.40;;;22.60;55.40;;;;;;5111800;28;20650;-42
2022/09/27 09:22:53;;;;;;;3.80;0.50;;;24.50;52.10;;;;;;5113325;28;20455;-44
2022/09/27 09:25:24;;;;;;;1.20;0.40;;;26.20;48.20;;;;;;5114632;28;20416;-41
2022/09/27 09:28:17;;;;;;;1.57;0.40;;;27.20;45.10;;;;;;5113845;28;20513;-43
2022/09/27 09:31:14;;;;;;;1.17;0.60;;;28.20;42.50;;;;;;5113019;28;20469;-42
2022/09/27 09:34:09;;;;;;;1.10;0.50;;;29.20;41.30;;;;;;5095732;28;20436;-44
2022/09/27 09:36:41;;;;;;;1.10;0.70;;;29.60;38.30;;;;;;5086497;27;20501;-43
2022/09/27 09:39:23;;;;;;;1.70;1.20;;;29.70;37.40;;;;;;5135359;27;20470;-45
2022/09/27 09:42:06;;;;;;;1.20;0.60;;;30.00;37.00;;;;;;5135877;27;20504;-45
2022/09/27 09:44:58;;;;;;;3.47;0.80;;;29.70;36.50;;;;;;5117383;27;20428;-46
2022/09/27 09:47:30;;;;;;;2.13;1.10;;;29.60;36.00;;;;;;5105277;28;20730;-43
2022/09/27 09:50:00;;;;;;;2.70;1.00;;;30.10;35.60;;;;;;5116367;27;20443;-42
2022/09/27 09:52:35;;;;;;;1.20;0.70;;;30.30;34.90;;;;;;5118018;28;20563;-46
2022/09/27 09:55:06;;;;;;;1.73;0.77;;;30.50;34.50;;;;;;5116568;28;20444;-44
2022/09/27 09:57:42;;;;;;;3.47;0.80;;;30.70;34.60;;;;;;5121277;27;20463;-47
2022/09/27 10:00:16;;;;;;;1.60;0.70;;;30.60;33.90;;;;;;5141284;27;20809;-45
2022/09/27 10:02:44;;;;;;;1.70;0.80;;;30.60;33.40;;;;;;5141785;27;20580;-43
2022/09/27 10:05:17;;;;;;;1.87;0.70;;;30.90;33.20;;;;;;5142175;27;20411;-43
2022/09/27 10:07:43;;;;;;;2.27;1.00;;;31.60;32.90;;;;;;5142021;27;20399;-41
2022/09/27 10:10:14;;;;;;;2.50;1.40;;;32.20;32.30;;;;;;5140764;27;20463;-43
2022/09/27 10:12:40;;;;;;;1.60;1.00;;;32.00;32.30;;;;;;5121403;27;20290;-44
2022/09/27 10:15:06;;;;;;;1.40;1.03;;;31.40;32.50;;;;;;5140908;27;20444;-43
2022/09/27 10:17:40;;;;;;;1.50;0.87;;;30.20;32.50;;;;;;5140918;27;20197;-46
2022/09/27 10:20:07;;;;;;;1.73;0.90;;;29.30;33.30;;;;;;5122095;27;20694;-44
2022/09/27 10:22:39;;;;;;;2.03;1.17;;;28.40;34.10;;;;;;5140706;27;20432;-44
2022/09/27 10:25:07;;;;;;;2.03;0.90;;;27.20;34.90;;;;;;5121703;27;20759;-46
2022/09/27 10:27:46;;;;;;;1.83;1.10;;;26.10;35.90;;;;;;5140981;27;20403;-43
2022/09/27 10:30:23;;;;;;;2.73;0.90;;;25.10;37.10;;;;;;5139313;27;20474;-44
2022/09/27 10:32:52;;;;;;;1.80;1.10;;;24.60;38.00;;;;;;5136847;27;20768;-43
2022/09/27 10:35:30;;;;;;;1.93;1.07;;;24.40;38.90;;;;;;5118685;27;20413;-43
2022/09/27 10:38:22;;;;;;;3.00;1.27;;;24.30;38.50;;;;;;5139375;27;20415;-42
2022/09/27 10:40:54;;;;;;;2.17;1.00;;;24.00;38.80;;;;;;5140068;27;20428;-43
2022/09/27 10:43:31;;;;;;;3.07;1.77;;;23.50;39.30;;;;;;5139901;27;20451;-41
2022/09/27 10:46:32;;;;;;;1.60;1.17;;;23.20;41.30;;;;;;5138708;27;20479;-45
2022/09/27 10:49:09;;;;;;;2.30;0.93;;;23.20;43.10;;;;;;5057255;28;20893;-43
2022/09/27 10:51:35;;;;;;;2.90;1.13;;;23.30;43.00;;;;;;5112282;27;20477;-42
2022/09/27 10:54:00;;;;;;;3.43;1.60;;;23.20;41.80;;;;;;5140583;27;20739;-45
2022/09/27 10:56:32;;;;;;;2.50;1.57;;;22.90;42.10;;;;;;5140237;27;20415;-45
2022/09/27 10:59:01;;;;;;;2.13;1.00;;;22.70;41.60;;;;;;5140883;27;20183;-46
2022/09/27 11:01:44;;;;;;;1.83;1.10;;;22.50;42.60;;;;;;5112713;27;20507;-45
2022/09/27 11:04:19;;;;;;;2.50;1.17;;;22.40;41.70;;;;;;5121629;27;20757;-44
2022/09/27 11:06:45;;;;;;;2.53;0.80;;;22.50;42.10;;;;;;5113023;28;21017;-44
2022/09/27 11:09:25;;;;;;;1.30;0.60;;;23.10;41.50;;;;;;5116721;28;20416;-46
2022/09/27 11:12:11;;;;;;;1.83;0.80;;;24.40;40.30;;;;;;5118451;28;20247;-48
2022/09/27 11:14:38;;;;;;;2.10;0.97;;;26.20;41.10;;;;;;5115819;28;20650;-44
2022/09/27 11:17:09;;;;;;;1.43;0.80;;;27.10;40.70;;;;;;5113704;28;20422;-46
2022/09/27 11:19:40;;;;;;;2.47;0.80;;;27.90;39.90;;;;;;5117753;28;20420;-46
2022/09/27 11:22:21;;;;;;;2.00;0.77;;;29.10;38.20;;;;;;5115625;28;20611;-45
2022/09/27 11:25:24;;;;;;;1.53;0.70;;;29.30;37.90;;;;;;5111713;28;20566;-44
2022/09/27 11:28:06;;;;;;;2.80;1.00;;;28.50;39.20;;;;;;5109832;28;20422;-44
2022/09/27 11:30:51;;;;;;;4.20;1.07;;;27.20;39.70;;;;;;5093584;28;20634;-44
2022/09/27 11:33:43;;;;;;;2.17;0.90;;;25.80;39.50;;;;;;5111623;28;20647;-47
2022/09/27 11:36:32;;;;;;;1.37;0.90;;;24.70;41.00;;;;;;5105735;28;20506;-48
2022/09/27 11:39:09;;;;;;;2.13;0.90;;;23.80;42.70;;;;;;5107233;28;20505;-43
2022/09/27 11:41:47;;;;;;;1.60;0.90;;;24.10;43.30;;;;;;5092225;28;20425;-43
2022/09/27 11:44:38;;;;;;;1.83;0.80;;;24.50;42.90;;;;;;5112435;28;20429;-43
2022/09/27 11:47:08;;;;;;;1.50;0.90;;;24.60;42.90;;;;;;5112624;28;20442;-42
2022/09/27 11:49:45;;;;;;;1.40;0.80;;;24.50;42.80;;;;;;5090484;28;20682;-46
2022/09/27 11:52:23;;;;;;;2.07;0.90;;;24.10;42.70;;;;;;5106065;28;20461;-42
2022/09/27 11:55:02;;;;;;;2.10;0.73;;;23.60;43.80;;;;;;5111044;28;20817;-43
2022/09/27 11:57:33;;;;;;;1.40;0.80;;;22.90;44.70;;;;;;5093623;28;20710;-45
2022/09/27 12:00:25;;;;;;;1.33;0.97;;;22.10;45.60;;;;;;5113522;28;20405;-44
2022/09/27 12:03:09;;;;;;;5.60;1.10;;;21.30;46.60;;;;;;5093959;28;20443;-42
2022/09/27 12:05:46;;;;;;;1.27;0.70;;;20.80;47.50;;;;;;5110047;28;20533;-43
2022/09/27 12:08:18;;;;;;;1.20;0.80;;;20.30;48.50;;;;;;5111002;28;20418;-47
2022/09/27 12:10:49;;;;;;;1.50;0.70;;;20.00;49.50;;;;;;5111047;28;20421;-44
2022/09/27 12:13:18;;;;;;;1.77;0.80;;;19.80;48.70;;;;;;5094599;28;20431;-44
2022/09/27 12:15:46;;;;;;;1.20;0.67;;;19.50;48.60;;;;;;5095816;28;20427;-47
2022/09/27 12:18:21;;;;;;;1.93;1.00;;;19.10;49.40;;;;;;5097292;28;20407;-43
2022/09/27 12:20:46;;;;;;;1.20;0.80;;;18.60;50.40;;;;;;5095245;28;20431;-43
2022/09/27 12:23:42;;;;;;;2.47;0.93;;;18.30;51.50;;;;;;5095334;28;20468;-45
2022/09/27 12:26:22;;;;;;;2.00;0.90;;;17.80;52.70;;;;;;5092613;28;20201;-46
2022/09/27 12:28:58;;;;;;;1.40;0.80;;;17.40;53.60;;;;;;5112668;28;20419;-45
2022/09/27 12:31:40;;;;;;;1.70;0.90;;;17.20;54.60;;;;;;5078655;28;20475;-45
2022/09/27 12:34:18;;;;;;;2.13;0.97;;;17.00;55.50;;;;;;5115296;28;20416;-45
2022/09/27 12:37:07;;;;;;;2.37;1.10;;;16.90;56.50;;;;;;5099744;28;20426;-43
2022/09/27 12:39:54;;;;;;;1.63;1.20;;;16.90;57.30;;;;;;5137433;27;20444;-44
2022/09/27 12:42:35;;;;;;;1.80;1.10;;;16.80;57.90;;;;;;5120864;27;20687;-44
2022/09/27 12:45:01;;;;;;;2.40;0.97;;;16.70;59.00;;;;;;5118826;27;20417;-46
2022/09/27 12:47:35;;;;;;;2.33;1.00;;;16.60;60.10;;;;;;5135788;27;20860;-46
2022/09/27 12:50:08;;;;;;;3.10;1.07;;;16.40;61.30;;;;;;5117900;27;20165;-44
2022/09/27 12:52:38;;;;;;;2.70;0.97;;;16.30;62.80;;;;;;5117714;27;20718;-43
2022/09/27 12:55:22;;;;;;;1.50;0.70;;;16.20;64.70;;;;;;5119369;27;20554;-45
2022/09/27 12:58:06;;;;;;;1.33;0.60;;;16.40;64.60;;;;;;5117037;27;20450;-48
2022/09/27 13:00:50;;;;;;;1.20;0.60;;;16.60;63.80;;;;;;5136454;27;20436;-42
2022/09/27 13:03:54;;;;;;;1.70;0.80;;;16.80;64.00;;;;;;5115997;27;20758;-46
2022/09/27 13:06:59;;;;;;;1.30;0.60;;;16.80;64.40;;;;;;5052357;28;20438;-44
2022/09/27 13:10:04;;;;;;;2.07;0.80;;;16.70;64.50;;;;;;5134093;27;20445;-43
2022/09/27 13:12:31;;;;;;;1.30;0.60;;;16.50;63.30;;;;;;5099756;27;20476;-45
2022/09/27 13:15:02;;;;;;;1.23;0.80;;;16.30;63.80;;;;;;5117474;27;20831;-43
2022/09/27 13:17:41;;;;;;;2.00;0.90;;;16.10;64.60;;;;;;5135465;27;20525;-45
2022/09/27 13:20:34;;;;;;;1.23;0.70;;;15.90;65.80;;;;;;5133705;27;20476;-45
2022/09/27 13:23:02;;;;;;;2.30;0.90;;;15.70;67.20;;;;;;5134105;27;20722;-41